Terminal Aerodrome Forecast
Issued by NWS

Home | Current Version | Previous Version | Graphics & Text | Print | Product List | Glossary On
Versions: 1 2 3 4 5 6 7 8 9 10 11 12 13 14 15 16 17
000
FTUS43 KTOP 282300
TAFFOE
TAF
KFOE 282328Z 2900/2924 27011KT P6SM SCT250
     FM290400 32016G24KT P6SM FEW250
     FM290800 33019G28KT P6SM BKN015
     FM292000 34014KT P6SM SCT025=

USA.gov is the U.S. government's official web portal to all federal, state and local government web resources and services.